NWS Home NWS Lubbock West Texas Mesonet Latest Conditions as of 0815 AM, Sat Aug 17, 2019

Latest   N   C   S   Daily Sum   3hrΔ   24hrΔ   Soil Data 
Site Map   24hr Precip   72hr Precip   Google Plot


Station Time of Last Temp Dew Pt. RH Wind Direction Wind Speed Wind Gust Max Wind Max Temp Min Temp Max RH Min RH Altimeter 1HR Rain Today's Rain Solar Rad RFTI
Abernathy 5ENE  08:10 AM 73 57 60% S912 15 mph 197° @ 0405 AM 79 71 62 44 29.92" 0 0 136 0
Adrian 6WSW  08:10 AM 69 56 62% S910 30 mph 202° @ 0136 AM 78 67 66 40 29.95" 0 0 138 0
Aiken 3WSW  08:10 AM 71 59 65% S77 15 mph 152° @ 0741 AM 76 68 69 46 29.93" 0 0 176 0
Amarillo 15NNW   08:10 AM 72 60 65% SW57 30 mph 143° @ 0324 AM 81 67 76 37 29.91" 0 0.16 139 0
Amarillo 7SSE  08:10 AM 75 56 53% S910 19 mph 145° @ 0115 AM 80 65 73 35 29.94" 0 0 46 0
Amarillo 9NNE  08:10 AM 73 58 60% S1014 28 mph 349° @ 0240 AM 80 69 66 40 29.90" 0 0 107 0
Amherst 1NE  08:10 AM 76 56 53% S1319 19 mph 193° @ 0810 AM 76 66 73 49 29.92" 0 0 128 0
Andrews 2E  08:10 AM 78 59 54% S812 19 mph 197° @ 0445 AM 80 76 57 39 29.93" 0 0 114 0
Anton 6SSW  08:10 AM 78 58 52% S1215 21 mph 195° @ 0650 AM 79 69 65 42 29.92" 0 0 189 0
Aspermont 3NE  08:10 AM 80 65 63% S911 24 mph 147° @ 1220 AM 91 78 65 38 29.86" 0 0 133 0
Big Bend NP - Castolon  08:10 AM 86 59 41% SE99 18 mph 124° @ 0202 AM 94 83 43 28 29.88" 0 0 95 0
Big Bend NP - Persimmon Gap  08:10 AM 84 58 41% S22 15 mph 129° @ 0323 AM 91 83 42 30 29.93" 0 0 46 0
Big Lake 1WNW  08:10 AM 78 66 69% S1214 17 mph 174° @ 0724 AM 83 76 70 39 29.94" 0 0 112 0
Bootleg 11WNW  08:10 AM 71 55 57% SW1315 28 mph 195° @ 1252 AM 78 64 68 41 29.98" 0 0 35 0
Boys Ranch 1WSW  08:10 AM 69 58 69% E11 18 mph 96° @ 1206 AM 83 68 71 34 29.89" 0 0 31 0
Brownfield 2S  08:10 AM 69 59 73% SE811 18 mph 157° @ 1225 AM 76 66 83 59 29.93" 0 0 124 0
Canadian 6E  08:10 AM 76 63 64% SE66 56 mph 159° @ 1201 AM 85 70 73 32 29.79" 0 0.05 61 0
Caprock Canyons State Park  08:10 AM 75 58 56% N24 20 mph 206° @ 1215 AM 83 69 65 35 29.90" 0 0 84 0
Childress 2NNE  08:10 AM 78 65 69% SE911 17 mph 145° @ 0230 AM 85 73 77 37 29.86" 0 0 152 0
Clarendon 2WSW  08:10 AM 78 58 53% S1014 79 mph 186° @ 0315 AM 83 71 73 38 29.87" 0 0.04 71 0
Claude 12SW  08:10 AM 75 57 54% SE78 29 mph 138° @ 0519 AM 84 71 65 30 29.92" 0 0 51 0
Clyde 2WNW  08:10 AM 78 65 64% S1518 23 mph 155° @ 1235 AM 86 76 68 50 29.91" 0 0 94 0
Colorado City 5NW  08:10 AM 79 64 60% SE810 11 mph 147° @ 0324 AM 84 74 66 46 29.91" 0 0 141 0
Coyanosa 2N  08:10 AM 79 62 56% E89 17 mph 160° @ 0101 AM 88 76 60 37 29.89" 0 0 56 0
Crane 1NNW   08:10 AM 82 63 52% S1418 25 mph 178° @ 0300 AM 91 82 52 29 29.89" 0 0 133 0
Crowell 1E  08:10 AM 83 67 57% S79 25 mph 170° @ 0252 AM 89 80 64 43 29.87" 0 0 49 0
Dell City  08:10 AM 68 60 74% NW01 8 mph 291° @ 0603 AM 78 65 82 50 29.99" 0 0 70 0
Denver City 7WNW  08:10 AM 71 55 59% S910 12 mph 207° @ 0530 AM 76 69 62 45 29.94" 0 0 125 0
Dimmitt 2NE  08:10 AM 70 56 64% S1316 22 mph 173° @ 1250 AM 75 69 68 46 29.92" 0 0 159 0
Doole 3WNW  08:10 AM 79 68 67% SE1014 19 mph 142° @ 0124 AM 88 78 69 47 29.90" 0 0 164 0
Dora NM 2SW  08:10 AM 72 53 52% SW1418 26 mph 216° @ 0350 AM 81 68 61 35 29.96" 0 0 36 0
Dozier 3W  08:10 AM 79 67 66% E811 30 mph 41° @ 1202 AM 81 76 70 45 29.87" 0 0 162 0
Earth 9WSW  08:10 AM 71 57 61% S67 27 mph 182° @ 0307 AM 77 66 70 46 29.94" 0 0 133 0
Endee NM 2SW  08:10 AM 74 57 55% SW910 31 mph 190° @ 0411 AM 88 68 64 19 29.93" 0 0 161 0
Estelline 3SSE  08:10 AM 77 66 69% E56 14 mph 146° @ 0150 AM 85 73 74 40 29.86" 0 0 169 0
Floydada 2NNE  08:10 AM 76 56 49% S1115 20 mph 184° @ 0250 AM 79 68 65 40 29.91" 0 0 143 0
Fluvanna 3WNW  08:10 AM 77 61 59% S1215 17 mph 173° @ 0755 AM 80 73 64 52 29.91" 0 0 128 0
Fort Chadbourne  08:10 AM 79 66 65% SE79 18 mph 147° @ 0103 AM 85 76 69 44 29.92" 0 0 55 0
Fort Lancaster  08:10 AM 80 69 69% SE812 23 mph 140° @ 0405 AM 88 79 71 41 29.92" 0 0 138 0
Fort Lewis CO  08:10 AM 50 32 49% E78 14 mph 153° @ 0419 AM 58 44 71 28 30.25" 0 0 110 0
Fort McKavett  08:10 AM 76 68 75% S57 19 mph 168° @ 0529 AM 85 75 77 46 29.95" 0 0 38 0
Friona 2NE  08:10 AM 71 56 62% S1012 25 mph 168° @ 0405 AM 74 68 68 48 29.94" 0 0 150 0
Fritch 1WNW  08:10 AM 75 58 57% S67 40 mph 189° @ 0252 AM 82 74 62 40 29.89" 0 0 248 0
Gail 2ESE  08:10 AM 77 59 55% SE46 14 mph 159° @ 1210 AM 84 71 62 38 29.90" 0 0 128 0
Goodlett 3W  08:10 AM 81 65 61% SE46 16 mph 152° @ 0335 AM 86 77 68 39 29.85" 0 0 149 0
Goodnight  08:10 AM 72 63 73% SE45 26 mph 143° @ 0617 AM 79 70 76 42 29.92" 0 0 69 0
Graham 5SSW  08:10 AM 76 58 55% SE810 17 mph 179° @ 0445 AM 82 73 58 40 29.91" 0 0 140 0
Guadalupe Mtns Natl Park  08:10 AM 79 48 35% NW1820 29 mph 291° @ 0514 AM 80 76 42 35 30.09" 0 0 107 0
Guthrie 10WSW  08:10 AM 78 61 58% S912 16 mph 155° @ 0350 AM 80 71 68 46 29.86" 0 0 112 0
Hackberry 2 SSE  08:10 AM 81 65 59% SE78 22 mph 145° @ 0123 AM 87 78 63 38 29.86" 0 0 172 0
Happy 1E  08:10 AM 70 56 60% S89 24 mph 188° @ 1256 AM 81 70 61 38 29.93" 0 0 105 0
Hart 3N  08:10 AM 70 58 67% S57 22 mph 159° @ 0225 AM 76 66 77 46 29.93" 0 0 132 0
Haskell 1NW  08:10 AM 82 64 59% S1015 21 mph 161° @ 1215 AM 89 80 61 46 29.86" 0 0 138 0
Hereford 2NW  08:10 AM 70 56 63% E34 20 mph 183° @ 1210 AM 79 66 68 38 29.94" 0 0 135 0
Hobbs NM 5NW  08:10 AM 73 55 52% S78 12 mph 182° @ 0356 AM 80 70 55 36 29.98" 0 0 108 0
Jayton 1SSE  08:10 AM 78 63 63% S69 13 mph 146° @ 0315 AM 83 73 71 42 29.87" 0 0 141 0
Junction 1SSW  08:10 AM 77 71 79% S22 21 mph 149° @ 1253 AM 87 75 84 47 29.94" 0 0 114 0
Knox City 3NW  08:10 AM 83 65 58% S1215 23 mph 156° @ 0450 AM 90 81 61 43 29.85" 0 0 133 0
Lake Alan Henry 1NW  08:10 AM 80 62 55% S811 11 mph 187° @ 0810 AM 83 76 59 44 29.88" 0 0 147 0
Lake McClellan 2NW  08:10 AM 74 61 65% SE910 24 mph 349° @ 0538 AM 76 69 79 50 29.91" 0.01 0.02 159 0
Lamesa 2SE  08:10 AM 73 63 74% S810 12 mph 148° @ 1215 AM 78 69 79 55 29.92" 0 0 132 0
Lesley 2S  08:10 AM 78 64 62% E1011 16 mph 356° @ 0348 AM 86 74 69 39 29.86" 0 0 233 0
Levelland 4S  08:10 AM 73 58 63% S1012 17 mph 189° @ 0750 AM 77 69 68 50 29.93" 0 0 142 0
Lomax 1SSE  08:10 AM 79 65 63% S1215 19 mph 183° @ 0708 AM 80 74 84 53 29.90" 0 0 46 0
Lubbock 3WNW TTU  08:10 AM 78 56 49% S1116 19 mph 198° @ 0440 AM 81 74 54 36 29.91" 0 0 127 0
McCamey 1SSW  08:10 AM 82 65 56% SE1723 33 mph 137° @ 0303 AM 88 81 57 35 29.91" 0 0 119 0
McLean 1E  08:10 AM 75 63 69% S79 30 mph 71° @ 1210 AM 76 71 77 53 29.88" 0 0 31 0
Memphis 1NE  08:10 AM 78 63 62% E47 18 mph 36° @ 1230 AM 84 73 67 36 29.86" 0 0 133 0
Menard 2NW   08:10 AM 77 69 77% S47 11 mph 170° @ 0308 AM 82 74 79 54 29.95" 0 0 141 0
Mertzon 3NNE  08:10 AM 79 67 67% S1316 20 mph 181° @ 0216 AM 84 77 69 44 29.92" 0 0 129 0
Morton 1ENE  08:10 AM 76 55 50% S1115 19 mph 172° @ 1220 AM 79 70 60 42 29.93" 0 0 157 0
Muleshoe 2SSW  08:10 AM 70 57 67% SW24 18 mph 168° @ 0310 AM 76 65 74 49 29.93" 0 0 132 0
New Home  08:10 AM 73 59 62% S910 17 mph 188° @ 0336 AM 79 70 68 44 29.94" 0 0 148 0
Northfield 1S  08:10 AM 75 59 60% E67 15 mph 175° @ 1245 AM 83 72 65 38 29.86" 0 0 147 0
O'Donnell 1N  08:10 AM 76 60 60% S710 16 mph 180° @ 0135 AM 81 73 65 45 29.92" 0 0 99 0
Odell 4ENE  08:10 AM 82 68 63% S1112 24 mph 154° @ 1209 AM 89 80 66 45 29.85" 0 0 144 0
Olton 6S  08:10 AM 75 56 52% SW1115 18 mph 200° @ 0800 AM 75 69 62 42 29.92" 0 0 70 0
Paducah 10SW  08:10 AM 76 63 68% S78 13 mph 207° @ 0650 AM 76 72 74 52 29.86" 0 0 123 0
Palo Duro 4E (JA Ranch)  08:10 AM 75 63 67% S33 27 mph 111° @ 0308 AM 86 71 74 37 29.88" 0 0.01 74 0
Palo Duro Canyon SP Floor  08:10 AM 75 61 61% SE45 33 mph 169° @ 0504 AM 88 72 74 27 29.88" 0 0.01 59 0
Palo Duro Canyon State Park Rim  08:10 AM 75 56 52% SE811 21 mph 160° @ 0147 AM 85 74 54 29 29.93" 0 0 61 0
Palo Duro Reservoir 1NW   08:10 AM 70 58 65% NW910 32 mph 173° @ 0112 AM 83 70 65 34 29.86" 0 0 163 0
Pampa 2E  08:10 AM 70 62 79% SE1418 58 mph 195° @ 0510 AM 80 68 79 42 29.89" 0 0.34 52 0
Panhandle 1SSW  08:10 AM 70 61 74% SE911 35 mph 330° @ 0250 AM 78 67 77 46 29.92" 0 0 183 0
Plains 3N  08:10 AM 73 58 61% S912 13 mph 202° @ 0535 AM 76 69 71 54 29.94" 0 0 118 0
Plainview 1S  08:10 AM 74 58 58% S68 16 mph 158° @ 1220 AM 80 71 64 39 29.91" 0 0 142 0
Post 1NE  08:10 AM 78 56 48% S68 18 mph 196° @ 1235 AM 85 75 53 35 29.89" 0 0 138 0
Ralls 1SE  08:10 AM 74 55 54% S810 12 mph 173° @ 0625 AM 78 69 61 39 29.92" 0 0 142 0
Reese Center  08:10 AM 74 58 58% S1113 16 mph 172° @ 1230 AM 79 70 63 40 29.92" 0 0 145 0
Roaring Springs 3N  08:10 AM 76 61 62% S912 15 mph 179° @ 0120 AM 81 71 71 45 29.88" 0 0 113 0
Romero 11 SSW  08:10 AM 68 56 66% NW22 22 mph 206° @ 1225 AM 84 65 71 36 29.93" 0 0 57 0
Rotan 5W  08:10 AM 80 64 57% S1012 24 mph 153° @ 0159 AM 86 77 59 42 29.89" 0 0 154 0
San Angelo 7NW  08:10 AM 80 63 59% S610 11 mph 160° @ 0700 AM 82 78 60 40 29.91" 0 0 130 0
Seagraves 1SW  08:10 AM 72 58 64% S56 14 mph 210° @ 0500 AM 79 70 67 46 29.93" 0 0 93 0
Segovia 7SSW  08:10 AM 75 70 86% S811 18 mph 154° @ 1250 AM 82 73 88 55 29.97" 0 0 147 0
Seminole 2NNE  08:10 AM 72 57 61% SE45 19 mph 207° @ 0400 AM 80 71 62 39 29.93" 0 0 122 0
Seymour 3NW  08:10 AM 82 67 64% S1015 26 mph 142° @ 1210 AM 89 80 68 46 29.85" 0 0 153 0
Sierra Blanca 1SSE  08:10 AM 73 56 54% E22 9 mph 236° @ 0234 AM 81 71 57 38 30.06" 0 0 61 0
Silverton 7ESE  08:10 AM 74 55 53% E56 21 mph 183° @ 1240 AM 82 68 63 35 29.91" 0 0 82 0
Slaton 2NE  08:10 AM 73 57 59% S45 15 mph 172° @ 1255 AM 79 67 69 46 29.92" 0 0 129 0
Smyer  08:10 AM 74 59 58% S89 19 mph 203° @ 0701 AM 79 70 65 45 29.92" 0 0 80 0
Snyder 3E  08:10 AM 78 63 63% S1216 17 mph 167° @ 0805 AM 79 74 67 59 29.90" 0 0 114 0
Snyder 3SSW  08:10 AM 78 63 61% S1012 14 mph 163° @ 0318 AM 81 74 71 56 29.91" 0 0.01 155 0
South Plains 3ENE  08:10 AM 72 59 62% SW79 17 mph 133° @ 0246 AM 79 66 75 46 29.91" 0 0 50 0
Spur 1W  08:10 AM 76 60 59% SE23 14 mph 119° @ 1255 AM 81 70 71 44 29.87" 0 0 133 0
St. Lawrence 5SW  08:10 AM 79 64 62% S1419 24 mph 185° @ 0245 AM 83 76 62 35 29.92" 0 0 127 0
Stamford 5ESE  08:10 AM 83 67 58% S1416 22 mph 170° @ 0638 AM 90 81 61 45 29.86" 0 0 159 0
Sterling City 4WSW  08:10 AM 80 65 59% SE79 18 mph 174° @ 0542 AM 88 78 62 34 29.93" 0 0 98 0
Stinnett 1NNW  08:10 AM 76 58 52% S89 28 mph 155° @ 1203 AM 80 74 57 43 29.90" 0 0 147 0
Sundown 8WSW  08:05 AM 72 57 61% S911 15 mph 179° @ 0325 AM 76 65 72 49 29.93" 0 0 119 0
Sweetwater 11SW   08:10 AM 78 64 61% S1415 21 mph 139° @ 0147 AM 86 76 64 36 29.93" 0 0 51 0
Tahoka 3NNE  08:10 AM 76 59 54% S1011 16 mph 162° @ 0525 AM 79 71 63 45 29.92" 0 0 141 0
Tarzan 2WNW  08:10 AM 77 64 64% S810 12 mph 163° @ 0156 AM 78 71 76 56 29.92" 0 0 43 0
Tatum NM 2SW  08:10 AM 74 52 49% S1012 16 mph 204° @ 0650 AM 74 67 63 48 29.96" 0 0 108 0
Throckmorton 1SW  08:10 AM 81 68 65% S811 18 mph 141° @ 1251 AM 88 79 69 49 29.87" 0 0 164 0
Tulia 2ENE  08:10 AM 68 57 69% SE910 31 mph 185° @ 0240 AM 81 68 69 39 29.92" 0 0 53 0
Turkey 2WSW  08:10 AM 75 60 60% NW78 16 mph 175° @ 1215 AM 82 70 68 41 29.88" 0 0 176 0
Umbarger 3NNE  08:10 AM 73 56 56% S911 25 mph 186° @ 0353 AM 81 69 63 36 29.94" 0 0 71 0
Van Horn 3ENE  08:10 AM 74 62 67% SW68 12 mph 207° @ 0724 AM 79 73 69 55 30.00" 0 0 107 0
Vigo Park  08:10 AM 70 59 67% SE911 24 mph 140° @ 0236 AM 80 68 70 42 29.92" 0 0 31 0
Wall 2E  08:10 AM 80 67 65% S1321 23 mph 171° @ 0329 AM 84 79 66 46 29.91" 0 0 155 0
Weinert 2NNE  08:10 AM 82 66 57% S1416 25 mph 157° @ 1209 AM 89 80 61 42 29.86" 0 0 155 0
Welch  08:10 AM 70 62 76% S34 17 mph 158° @ 1202 AM 77 65 95 60 29.94" 0 0 142 0
White River Lake 6NW  08:10 AM 76 57 55% S57 9 mph 154° @ 1225 AM 81 72 58 42 29.90" 0 0 134 0
Wolfforth 6SSW  08:10 AM 72 59 65% S912 18 mph 166° @ 1250 AM 78 68 71 49 29.92" 0 0 123 0

West Texas Mesonet Home   Site Map/Menu  NWS Lubbock Soil Data  Daily Summary Page  24hr Precip  72hr Precip  Google Plot